createdAt,value
2023-01-15T00:01:20.450Z,4.83
2023-01-15T00:03:49.125Z,1.97
2023-01-15T00:06:17.774Z,4.73
2023-01-15T00:08:47.654Z,4.10
2023-01-15T00:11:16.229Z,5.63
2023-01-15T00:13:44.460Z,1.33
2023-01-15T00:16:15.086Z,1.13
2023-01-15T00:18:43.387Z,5.82
2023-01-15T00:21:13.851Z,3.20
2023-01-15T00:23:58.868Z,2.90
2023-01-15T00:26:49.531Z,3.47
2023-01-15T00:29:18.273Z,4.80
2023-01-15T00:31:54.555Z,2.97
2023-01-15T00:34:22.637Z,3.90
2023-01-15T00:36:50.804Z,2.00
2023-01-15T00:39:18.839Z,2.73
2023-01-15T00:41:49.401Z,6.23
2023-01-15T00:44:17.492Z,2.10
2023-01-15T00:46:45.787Z,2.10
2023-01-15T00:49:14.592Z,1.83
2023-01-15T00:51:42.567Z,2.60
2023-01-15T00:54:10.839Z,3.23
2023-01-15T00:56:38.856Z,3.07
2023-01-15T00:59:08.235Z,2.47
2023-01-15T01:01:36.663Z,4.10
2023-01-15T01:04:05.153Z,1.27
2023-01-15T01:06:33.249Z,4.50
2023-01-15T01:09:01.219Z,5.53
2023-01-15T01:11:34.419Z,5.63
2023-01-15T01:16:35.946Z,4.80
2023-01-15T01:19:05.922Z,5.30
2023-01-15T01:21:34.425Z,1.93
2023-01-15T01:24:02.896Z,4.97
2023-01-15T01:26:31.444Z,3.17
2023-01-15T01:29:02.748Z,2.80
2023-01-15T01:31:32.249Z,4.97
2023-01-15T01:34:00.799Z,2.83
2023-01-15T01:36:31.512Z,4.20
2023-01-15T01:39:04.166Z,2.75
2023-01-15T01:41:33.398Z,6.70
2023-01-15T01:44:03.904Z,3.97
2023-01-15T01:46:35.574Z,4.32
2023-01-15T01:49:08.247Z,5.07
2023-01-15T01:51:40.920Z,7.50
2023-01-15T01:54:11.596Z,3.20
2023-01-15T01:56:40.025Z,2.38
2023-01-15T01:59:09.357Z,7.40
2023-01-15T02:01:39.149Z,2.57
2023-01-15T02:04:08.923Z,3.80
2023-01-15T02:06:38.579Z,5.40
2023-01-15T02:09:07.277Z,10.13
2023-01-15T02:11:36.223Z,6.03
2023-01-15T02:14:11.738Z,1.60
2023-01-15T02:16:47.801Z,7.20
2023-01-15T02:19:24.544Z,2.57
2023-01-15T02:22:05.110Z,8.13
2023-01-15T02:24:38.194Z,5.20
2023-01-15T02:27:16.384Z,3.10
2023-01-15T02:30:14.267Z,8.10
2023-01-15T02:33:05.986Z,6.63
2023-01-15T02:35:39.748Z,2.40
2023-01-15T02:38:16.056Z,2.67
2023-01-15T02:40:49.179Z,4.57
2023-01-15T02:43:23.728Z,3.33
2023-01-15T02:45:57.984Z,6.63
2023-01-15T02:48:31.057Z,3.73
2023-01-15T02:51:05.078Z,4.33
2023-01-15T02:53:35.949Z,3.53
2023-01-15T02:56:08.854Z,1.33
2023-01-15T02:58:48.685Z,6.07
2023-01-15T03:01:21.905Z,4.37
2023-01-15T03:03:59.023Z,3.70
2023-01-15T03:06:38.284Z,6.13
2023-01-15T03:09:07.413Z,6.50
2023-01-15T03:11:40.069Z,4.10
2023-01-15T03:14:17.850Z,8.90
2023-01-15T03:16:50.782Z,4.63
2023-01-15T03:19:26.876Z,1.57
2023-01-15T03:22:00.728Z,4.10
2023-01-15T03:24:36.682Z,2.97
2023-01-15T03:27:05.532Z,6.07
2023-01-15T03:29:39.497Z,2.17
2023-01-15T03:32:08.483Z,4.17
2023-01-15T03:34:41.780Z,2.03
2023-01-15T03:37:10.545Z,2.80
2023-01-15T03:39:39.597Z,4.27
2023-01-15T03:42:34.403Z,3.42
2023-01-15T03:45:12.484Z,1.03
2023-01-15T03:47:52.283Z,3.20
2023-01-15T03:50:28.518Z,3.67
2023-01-15T03:53:07.412Z,3.40
2023-01-15T03:55:44.357Z,1.47
2023-01-15T03:58:19.154Z,4.17
2023-01-15T04:00:53.251Z,0.60
2023-01-15T04:03:25.992Z,2.53
2023-01-15T04:05:58.459Z,6.77
2023-01-15T04:08:28.553Z,2.63
2023-01-15T04:10:58.629Z,4.70
2023-01-15T04:13:31.794Z,3.23
2023-01-15T04:16:02.068Z,8.43
2023-01-15T04:18:30.370Z,3.10
2023-01-15T04:21:01.311Z,6.50
2023-01-15T04:23:30.823Z,5.90
2023-01-15T04:25:58.865Z,4.37
2023-01-15T04:28:26.882Z,7.10
2023-01-15T04:30:58.278Z,2.83
2023-01-15T04:33:27.729Z,4.77
2023-01-15T04:35:56.014Z,2.13
2023-01-15T04:38:24.101Z,5.00
2023-01-15T04:41:09.606Z,3.20
2023-01-15T04:43:55.051Z,3.37
2023-01-15T04:46:23.225Z,3.87
2023-01-15T04:48:52.814Z,2.17
2023-01-15T04:51:21.017Z,0.90
2023-01-15T04:53:49.027Z,2.20
2023-01-15T04:56:17.316Z,4.57
2023-01-15T04:58:45.308Z,4.93
2023-01-15T05:01:14.372Z,4.20
2023-01-15T05:03:43.343Z,2.63
2023-01-15T05:06:14.400Z,8.40
2023-01-15T05:08:42.609Z,2.72
2023-01-15T05:11:10.642Z,3.73
2023-01-15T05:13:39.057Z,4.90
2023-01-15T05:16:12.662Z,2.73
2023-01-15T05:18:41.161Z,5.00
2023-01-15T05:21:17.740Z,1.70
2023-01-15T05:23:46.340Z,6.77
2023-01-15T05:26:14.395Z,2.03
2023-01-15T05:28:42.534Z,4.50
2023-01-15T05:31:12.263Z,3.70
2023-01-15T05:33:41.297Z,0.50
2023-01-15T05:36:11.668Z,2.37
2023-01-15T05:38:41.704Z,6.75
2023-01-15T05:41:26.065Z,4.73
2023-01-15T05:43:54.437Z,4.40
2023-01-15T05:46:23.259Z,5.67
2023-01-15T05:48:51.406Z,4.27
2023-01-15T05:51:19.446Z,8.60
2023-01-15T05:53:48.879Z,4.23
2023-01-15T05:56:16.847Z,4.90
2023-01-15T05:58:44.859Z,4.07
2023-01-15T06:01:13.279Z,4.87
2023-01-15T06:03:41.762Z,2.07
2023-01-15T06:06:14.278Z,3.63
2023-01-15T06:08:42.868Z,1.60
2023-01-15T06:11:12.783Z,7.17
2023-01-15T06:13:41.070Z,4.97
2023-01-15T06:16:10.811Z,2.63
2023-01-15T06:18:39.157Z,3.93
2023-01-15T06:21:08.669Z,4.53
2023-01-15T06:23:37.344Z,0.97
2023-01-15T06:26:07.181Z,2.70
2023-01-15T06:28:36.785Z,1.83
2023-01-15T06:31:06.823Z,9.20
2023-01-15T06:33:34.903Z,3.57
2023-01-15T06:36:05.021Z,3.17
2023-01-15T06:38:33.073Z,3.63
2023-01-15T06:41:01.888Z,1.53
2023-01-15T06:43:47.472Z,4.60
2023-01-15T06:46:35.760Z,2.20
2023-01-15T06:49:03.881Z,3.97
2023-01-15T06:51:32.016Z,3.27
2023-01-15T06:54:00.033Z,5.10
2023-01-15T06:56:28.168Z,3.43
2023-01-15T06:59:21.441Z,3.37
2023-01-15T07:01:51.009Z,2.70
2023-01-15T07:04:19.244Z,0.83
2023-01-15T07:06:47.270Z,1.90
2023-01-15T07:09:15.629Z,3.57
2023-01-15T07:11:50.308Z,6.27
2023-01-15T07:14:19.294Z,4.00
2023-01-15T07:16:47.737Z,0.83
2023-01-15T07:19:17.454Z,3.70
2023-01-15T07:21:45.717Z,2.13
2023-01-15T07:24:15.060Z,1.60
2023-01-15T07:26:43.980Z,5.27
2023-01-15T07:29:12.453Z,4.53
2023-01-15T07:31:40.844Z,3.23
2023-01-15T07:34:09.034Z,0.43
2023-01-15T07:36:39.317Z,2.37
2023-01-15T07:39:08.068Z,0.57
2023-01-15T07:41:53.415Z,0.40
2023-01-15T07:44:40.083Z,3.03
2023-01-15T07:47:35.653Z,3.87
2023-01-15T07:50:04.064Z,3.87
2023-01-15T07:52:35.231Z,1.47
2023-01-15T07:57:38.063Z,3.27
2023-01-15T08:00:07.603Z,2.93
2023-01-15T08:02:40.557Z,4.20
2023-01-15T08:05:09.604Z,1.47
2023-01-15T08:07:39.885Z,3.50
2023-01-15T08:10:09.427Z,6.13
2023-01-15T08:12:57.366Z,2.20
2023-01-15T08:15:25.869Z,1.73
2023-01-15T08:17:54.198Z,3.10
2023-01-15T08:20:24.029Z,3.03
2023-01-15T08:22:53.826Z,4.10
2023-01-15T08:25:24.349Z,7.67
2023-01-15T08:27:53.276Z,5.07
2023-01-15T08:30:23.840Z,2.00
2023-01-15T08:32:51.882Z,5.97
2023-01-15T08:35:20.274Z,1.70
2023-01-15T08:37:48.419Z,6.80
2023-01-15T08:40:18.563Z,2.83
2023-01-15T08:42:47.991Z,4.20
2023-01-15T08:45:16.120Z,2.63
2023-01-15T08:47:44.145Z,7.10
2023-01-15T08:50:12.889Z,6.60
2023-01-15T08:52:41.569Z,3.33
2023-01-15T08:55:10.018Z,3.40
2023-01-15T08:57:39.470Z,4.47
2023-01-15T09:00:09.597Z,6.33
2023-01-15T09:02:37.712Z,3.03
2023-01-15T09:05:06.609Z,9.77
2023-01-15T09:07:35.434Z,5.30
2023-01-15T09:10:04.411Z,9.10
2023-01-15T09:12:34.606Z,7.10
2023-01-15T09:15:07.444Z,3.17
2023-01-15T09:17:40.527Z,3.57
2023-01-15T09:20:11.212Z,6.57
2023-01-15T09:23:04.639Z,7.35
2023-01-15T09:25:32.622Z,4.83
2023-01-15T09:28:00.646Z,4.53
2023-01-15T09:30:30.189Z,5.57
2023-01-15T09:32:58.290Z,6.77
2023-01-15T09:35:26.584Z,5.33
2023-01-15T09:37:55.319Z,5.33
2023-01-15T09:40:48.393Z,6.37
2023-01-15T09:43:30.688Z,7.50
2023-01-15T09:46:05.015Z,6.10
2023-01-15T09:48:51.379Z,4.93
2023-01-15T09:51:29.404Z,11.27
2023-01-15T09:54:12.953Z,4.43
2023-01-15T09:56:41.172Z,7.90
2023-01-15T09:59:20.345Z,8.27
2023-01-15T10:01:51.253Z,8.17
2023-01-15T10:04:33.079Z,7.80
2023-01-15T10:07:08.324Z,3.97
2023-01-15T10:09:40.402Z,6.00
2023-01-15T10:12:34.635Z,9.00
2023-01-15T10:15:14.043Z,6.17
2023-01-15T10:17:48.421Z,4.97
2023-01-15T10:20:19.011Z,7.17
2023-01-15T10:23:04.288Z,7.55
2023-01-15T10:25:39.882Z,9.83
2023-01-15T10:28:19.711Z,2.40
2023-01-15T10:30:51.682Z,4.40
2023-01-15T10:33:37.491Z,10.47
2023-01-15T10:36:12.380Z,5.10
2023-01-15T10:38:49.348Z,8.20
2023-01-15T10:41:35.061Z,7.90
2023-01-15T10:44:37.989Z,8.30
2023-01-15T10:47:15.378Z,7.03
2023-01-15T10:49:45.330Z,8.10
2023-01-15T10:52:25.137Z,6.33
2023-01-15T10:55:01.078Z,5.73
2023-01-15T10:57:43.357Z,4.83
2023-01-15T11:00:12.628Z,8.70
2023-01-15T11:02:44.498Z,11.43
2023-01-15T11:05:16.969Z,9.10
2023-01-15T11:08:10.393Z,6.20
2023-01-15T11:10:36.250Z,4.00
2023-01-15T11:16:48.127Z,7.60
2023-01-15T11:19:40.167Z,4.13
2023-01-15T11:22:13.975Z,7.40
2023-01-15T11:24:50.674Z,3.13
2023-01-15T11:27:21.894Z,3.70
2023-01-15T11:29:54.604Z,8.57
2023-01-15T11:32:30.951Z,6.73
2023-01-15T11:35:00.929Z,9.43
2023-01-15T11:37:32.406Z,6.17
2023-01-15T11:40:06.218Z,3.47
2023-01-15T11:42:52.342Z,9.63
2023-01-15T11:45:40.973Z,6.83
2023-01-15T11:48:34.292Z,5.33
2023-01-15T11:51:07.834Z,4.90
2023-01-15T11:53:46.285Z,6.53
2023-01-15T11:56:17.823Z,5.33
2023-01-15T11:58:48.679Z,6.97
2023-01-15T12:01:25.005Z,6.55
2023-01-15T12:04:26.829Z,8.43
2023-01-15T12:06:55.255Z,5.10
2023-01-15T12:09:32.706Z,14.10
2023-01-15T12:12:13.470Z,5.57
2023-01-15T12:15:01.617Z,6.55
2023-01-15T12:17:51.903Z,12.67
2023-01-15T12:20:28.301Z,7.63
2023-01-15T12:23:13.431Z,4.77
2023-01-15T12:25:55.257Z,7.27
2023-01-15T12:28:28.140Z,8.63
2023-01-15T12:31:05.062Z,6.80
2023-01-15T12:33:44.667Z,25.63
2023-01-15T12:36:19.837Z,30.80
2023-01-15T12:38:52.484Z,14.60
2023-01-15T12:41:47.594Z,5.90
2023-01-15T12:44:38.597Z,11.23
2023-01-15T12:47:11.656Z,8.85
2023-01-15T12:49:45.853Z,6.37
2023-01-15T12:52:24.239Z,9.10
2023-01-15T12:54:59.295Z,8.90
2023-01-15T12:57:34.893Z,7.03
2023-01-15T13:01:16.847Z,9.73
2023-01-15T13:03:55.143Z,8.70
2023-01-15T13:06:28.506Z,9.47
2023-01-15T13:09:03.537Z,8.83
2023-01-15T13:11:31.724Z,7.37
2023-01-15T13:14:01.272Z,6.83
2023-01-15T13:16:38.982Z,10.37
2023-01-15T13:19:20.762Z,7.80
2023-01-15T13:21:52.110Z,9.53
2023-01-15T13:24:49.415Z,9.63
2023-01-15T13:27:27.170Z,8.67
2023-01-15T13:30:17.993Z,8.33
2023-01-15T13:32:50.063Z,5.90
2023-01-15T13:35:29.900Z,6.40
2023-01-15T13:38:01.431Z,4.60
2023-01-15T13:40:34.857Z,3.20
2023-01-15T13:43:05.681Z,6.53
2023-01-15T13:45:38.005Z,5.70
2023-01-15T13:48:09.817Z,4.23
2023-01-15T13:50:43.171Z,5.43
2023-01-15T13:53:24.120Z,8.37
2023-01-15T13:55:54.749Z,7.45
2023-01-15T13:58:26.957Z,7.80
2023-01-15T14:01:24.664Z,3.50
2023-01-15T14:04:02.143Z,5.13
2023-01-15T14:06:52.144Z,6.37
2023-01-15T14:09:31.919Z,4.90
2023-01-15T14:12:15.293Z,19.63
2023-01-15T14:15:00.705Z,8.87
2023-01-15T14:18:10.556Z,4.40
2023-01-15T14:20:55.443Z,8.40
2023-01-15T14:23:40.166Z,4.97
2023-01-15T14:26:18.909Z,8.93
2023-01-15T14:29:02.619Z,8.27
2023-01-15T14:31:43.923Z,10.63
2023-01-15T14:34:19.985Z,5.73
2023-01-15T14:36:57.531Z,7.73
2023-01-15T14:39:30.363Z,7.83
2023-01-15T14:42:22.189Z,6.60
2023-01-15T14:44:58.592Z,7.63
2023-01-15T14:47:35.405Z,16.27
2023-01-15T14:50:28.093Z,8.33
2023-01-15T14:53:01.022Z,7.73
2023-01-15T14:55:30.080Z,8.00
2023-01-15T14:58:02.179Z,7.80
2023-01-15T15:00:36.667Z,5.20
2023-01-15T15:03:14.193Z,8.53
2023-01-15T15:05:46.824Z,13.27
2023-01-15T15:08:17.342Z,5.77
2023-01-15T15:10:48.027Z,8.18
2023-01-15T15:13:20.642Z,11.13
2023-01-15T15:15:55.331Z,19.50
2023-01-15T15:18:31.187Z,6.17
2023-01-15T15:21:07.314Z,5.07
2023-01-15T15:23:40.878Z,5.43
2023-01-15T15:26:21.931Z,5.90
2023-01-15T15:28:57.942Z,6.78
2023-01-15T15:31:27.137Z,5.03
2023-01-15T15:33:56.900Z,5.83
2023-01-15T15:36:29.101Z,7.37
2023-01-15T15:38:59.364Z,5.87
2023-01-15T15:41:57.516Z,6.60
2023-01-15T15:44:55.753Z,7.40
2023-01-15T15:47:43.180Z,9.07
2023-01-15T15:50:21.493Z,5.97
2023-01-15T15:52:52.861Z,6.97
2023-01-15T15:55:22.557Z,8.67
2023-01-15T15:57:54.368Z,9.47
2023-01-15T16:00:29.654Z,8.27
2023-01-15T16:02:58.231Z,6.97
2023-01-15T16:05:29.374Z,3.17
2023-01-15T16:10:37.471Z,7.10
2023-01-15T16:13:07.986Z,5.33
2023-01-15T16:15:40.753Z,5.43
2023-01-15T16:18:19.816Z,6.77
2023-01-15T16:20:47.882Z,4.97
2023-01-15T16:23:23.709Z,6.17
2023-01-15T16:26:07.072Z,5.13
2023-01-15T16:28:41.854Z,5.73
2023-01-15T16:31:10.947Z,6.30
2023-01-15T16:33:39.933Z,8.87
2023-01-15T16:36:09.183Z,22.63
2023-01-15T16:38:41.575Z,18.03
2023-01-15T16:41:20.065Z,11.23
2023-01-15T16:43:54.491Z,11.73
2023-01-15T16:46:25.611Z,18.53
2023-01-15T16:49:21.182Z,9.63
2023-01-15T16:51:51.212Z,10.73
2023-01-15T16:54:42.500Z,7.73
2023-01-15T17:00:30.950Z,9.23
2023-01-15T17:03:01.376Z,8.47
2023-01-15T17:05:30.706Z,12.88
2023-01-15T17:08:00.293Z,8.03
2023-01-15T17:10:31.651Z,28.37
2023-01-15T17:13:00.394Z,20.20
2023-01-15T17:16:07.279Z,17.40
2023-01-15T17:18:36.344Z,15.17
2023-01-15T17:21:04.709Z,12.70
2023-01-15T17:23:41.936Z,10.33
2023-01-15T17:26:16.739Z,13.90
2023-01-15T17:28:45.349Z,19.47
2023-01-15T17:31:24.534Z,15.97
2023-01-15T17:33:53.005Z,26.30
2023-01-15T17:36:21.617Z,7.37
2023-01-15T17:38:51.464Z,8.00
2023-01-15T17:41:21.847Z,9.53
2023-01-15T17:43:50.588Z,9.57
2023-01-15T17:46:18.618Z,6.53
2023-01-15T17:48:46.684Z,8.50
2023-01-15T17:51:16.710Z,9.97
2023-01-15T17:53:44.941Z,10.60
2023-01-15T17:56:32.002Z,9.17
2023-01-15T17:59:29.163Z,9.90
2023-01-15T18:02:15.351Z,12.23
2023-01-15T18:05:05.163Z,6.70
2023-01-15T18:07:40.092Z,11.63
2023-01-15T18:10:34.213Z,12.53
2023-01-15T18:13:03.847Z,8.17
2023-01-15T18:15:32.041Z,7.50
2023-01-15T18:18:00.127Z,8.97
2023-01-15T18:20:28.353Z,10.03
2023-01-15T18:23:21.365Z,7.27
2023-01-15T18:25:49.536Z,8.73
2023-01-15T18:28:18.964Z,9.40
2023-01-15T18:30:47.725Z,7.30
2023-01-15T18:33:15.888Z,10.40
2023-01-15T18:35:43.911Z,11.27
2023-01-15T18:38:12.055Z,9.77
2023-01-15T18:40:40.291Z,11.10
2023-01-15T18:46:37.107Z,16.27
2023-01-15T18:49:05.468Z,5.40
2023-01-15T18:51:33.827Z,10.13
2023-01-15T18:54:02.192Z,8.37
2023-01-15T18:56:44.073Z,5.63
2023-01-15T18:59:14.099Z,16.47
2023-01-15T19:01:43.730Z,11.40
2023-01-15T19:04:11.992Z,11.17
2023-01-15T19:06:41.487Z,7.73
2023-01-15T19:09:13.817Z,7.70
2023-01-15T19:11:41.903Z,5.10
2023-01-15T19:14:28.225Z,3.53
2023-01-15T19:17:14.771Z,5.93
2023-01-15T19:19:47.193Z,6.33
2023-01-15T19:22:32.857Z,8.00
2023-01-15T19:25:01.300Z,7.73
2023-01-15T19:27:29.393Z,10.97
2023-01-15T19:29:58.256Z,11.80
2023-01-15T19:32:27.768Z,12.87
2023-01-15T19:34:55.886Z,8.20
2023-01-15T19:37:25.957Z,11.07
2023-01-15T19:39:54.342Z,9.30
2023-01-15T19:42:39.965Z,11.47
2023-01-15T19:45:26.729Z,9.77
2023-01-15T19:48:13.950Z,7.10
2023-01-15T19:50:43.978Z,10.87
2023-01-15T19:53:13.518Z,9.73
2023-01-15T19:55:44.755Z,6.30
2023-01-15T19:58:14.883Z,4.97
2023-01-15T20:00:48.315Z,8.00
2023-01-15T20:03:18.276Z,7.63
2023-01-15T20:05:47.085Z,9.10
2023-01-15T20:08:17.282Z,10.77
2023-01-15T20:10:50.679Z,17.95
2023-01-15T20:13:38.847Z,6.57
2023-01-15T20:16:09.046Z,10.30
2023-01-15T20:18:38.837Z,12.13
2023-01-15T20:21:09.777Z,10.77
2023-01-15T20:26:07.781Z,5.57
2023-01-15T20:28:36.412Z,9.67
2023-01-15T20:31:05.653Z,10.33
2023-01-15T20:33:33.790Z,7.97
2023-01-15T20:36:05.179Z,14.93
2023-01-15T20:38:33.231Z,8.97
2023-01-15T20:41:21.656Z,10.73
2023-01-15T20:44:12.260Z,7.47
2023-01-15T20:46:40.371Z,11.50
2023-01-15T20:49:27.481Z,5.77
2023-01-15T20:51:58.163Z,7.73
2023-01-15T20:54:27.688Z,9.25
2023-01-15T20:56:55.900Z,6.87
2023-01-15T20:59:26.678Z,6.93
2023-01-15T21:01:55.303Z,13.45
2023-01-15T21:04:23.941Z,10.57
2023-01-15T21:06:52.312Z,10.77
2023-01-15T21:09:22.277Z,5.43
2023-01-15T21:11:50.793Z,11.97
2023-01-15T21:14:19.223Z,8.60
2023-01-15T21:16:51.172Z,12.83
2023-01-15T21:19:22.856Z,12.40
2023-01-15T21:21:51.076Z,11.57
2023-01-15T21:24:19.451Z,11.33
2023-01-15T21:26:49.109Z,10.87
2023-01-15T21:29:17.689Z,9.70
2023-01-15T21:31:46.134Z,9.47
2023-01-15T21:34:14.462Z,6.43
2023-01-15T21:36:42.749Z,12.30
2023-01-15T21:39:14.253Z,10.47
2023-01-15T21:42:00.831Z,9.00
2023-01-15T21:44:35.335Z,9.60
2023-01-15T21:47:08.705Z,7.00
2023-01-15T21:49:38.202Z,11.13
2023-01-15T21:52:09.131Z,7.63
2023-01-15T21:54:37.449Z,6.95
2023-01-15T21:57:05.852Z,11.20
2023-01-15T21:59:35.761Z,12.53
2023-01-15T22:02:04.700Z,9.77
2023-01-15T22:04:36.896Z,12.13
2023-01-15T22:07:04.989Z,16.37
2023-01-15T22:09:33.831Z,8.33
2023-01-15T22:12:04.174Z,9.33
2023-01-15T22:14:34.194Z,14.48
2023-01-15T22:17:05.327Z,10.07
2023-01-15T22:22:04.958Z,12.77
2023-01-15T22:27:09.057Z,13.03
2023-01-15T22:29:40.489Z,10.27
2023-01-15T22:32:14.309Z,11.07
2023-01-15T22:34:45.296Z,11.13
2023-01-15T22:39:43.378Z,8.13
2023-01-15T22:42:33.056Z,9.37
2023-01-15T22:45:04.021Z,13.07
2023-01-15T22:47:33.979Z,12.70
2023-01-15T22:50:02.400Z,10.63
2023-01-15T22:52:31.160Z,8.57
2023-01-15T22:54:59.690Z,7.40
2023-01-15T22:57:31.088Z,12.97
2023-01-15T22:59:59.696Z,10.47
2023-01-15T23:02:41.936Z,10.03
2023-01-15T23:05:15.194Z,13.20
2023-01-15T23:07:44.208Z,15.00
2023-01-15T23:10:14.832Z,14.27
2023-01-15T23:12:43.823Z,11.63
2023-01-15T23:15:16.320Z,7.17
2023-01-15T23:17:45.942Z,10.43
2023-01-15T23:20:22.354Z,13.63
2023-01-15T23:22:53.286Z,13.77
2023-01-15T23:25:21.745Z,9.30
2023-01-15T23:27:50.195Z,14.13
2023-01-15T23:30:19.067Z,19.10
2023-01-15T23:32:49.218Z,11.73
2023-01-15T23:35:17.567Z,13.23
2023-01-15T23:37:47.422Z,9.57
2023-01-15T23:40:16.037Z,12.73
2023-01-15T23:43:02.115Z,8.13
2023-01-15T23:45:48.113Z,14.13
2023-01-15T23:48:16.461Z,9.63
2023-01-15T23:50:44.735Z,14.03
2023-01-15T23:53:15.385Z,15.33
2023-01-15T23:55:43.675Z,11.13
2023-01-15T23:58:11.881Z,9.13
